sensor_id;sensor_type;location;lat;lon;timestamp;temperature;humidity
27188;DHT22;14708;50.872;5.306;2023-02-28T00:00:36;18.90;59.10
27188;DHT22;14708;50.872;5.306;2023-02-28T00:03:02;18.80;59.10
27188;DHT22;14708;50.872;5.306;2023-02-28T00:05:28;18.80;59.10
27188;DHT22;14708;50.872;5.306;2023-02-28T00:07:54;18.80;59.00
27188;DHT22;14708;50.872;5.306;2023-02-28T00:13:47;18.80;59.10
27188;DHT22;14708;50.872;5.306;2023-02-28T00:16:16;18.80;59.10
27188;DHT22;14708;50.872;5.306;2023-02-28T00:18:42;18.70;59.00
27188;DHT22;14708;50.872;5.306;2023-02-28T00:21:08;18.70;59.10
27188;DHT22;14708;50.872;5.306;2023-02-28T00:23:34;18.70;59.10
27188;DHT22;14708;50.872;5.306;2023-02-28T00:36:15;18.60;59.10
27188;DHT22;14708;50.872;5.306;2023-02-28T00:38:41;18.60;59.00
27188;DHT22;14708;50.872;5.306;2023-02-28T00:41:07;18.60;59.10
27188;DHT22;14708;50.872;5.306;2023-02-28T00:43:35;18.60;59.00
27188;DHT22;14708;50.872;5.306;2023-02-28T00:46:02;18.60;59.00
27188;DHT22;14708;50.872;5.306;2023-02-28T01:15:24;18.50;58.80
27188;DHT22;14708;50.872;5.306;2023-02-28T01:17:49;18.40;58.80
27188;DHT22;14708;50.872;5.306;2023-02-28T01:20:15;18.40;58.90
27188;DHT22;14708;50.872;5.306;2023-02-28T01:22:40;18.40;59.00
27188;DHT22;14708;50.872;5.306;2023-02-28T01:25:06;18.40;58.90
27188;DHT22;14708;50.872;5.306;2023-02-28T01:27:33;18.40;58.80
27188;DHT22;14708;50.872;5.306;2023-02-28T01:29:59;18.30;58.90
27188;DHT22;14708;50.872;5.306;2023-02-28T01:39:08;18.30;58.90
27188;DHT22;14708;50.872;5.306;2023-02-28T01:41:34;18.30;58.80
27188;DHT22;14708;50.872;5.306;2023-02-28T01:47:10;18.30;58.80
27188;DHT22;14708;50.872;5.306;2023-02-28T01:49:36;18.20;58.80
27188;DHT22;14708;50.872;5.306;2023-02-28T01:52:02;18.30;58.60
27188;DHT22;14708;50.872;5.306;2023-02-28T01:54:31;18.30;58.70
27188;DHT22;14708;50.872;5.306;2023-02-28T01:57:07;18.20;58.60
27188;DHT22;14708;50.872;5.306;2023-02-28T01:59:40;18.20;58.60
27188;DHT22;14708;50.872;5.306;2023-02-28T02:05:39;18.20;58.70
27188;DHT22;14708;50.872;5.306;2023-02-28T02:08:08;18.20;58.60
27188;DHT22;14708;50.872;5.306;2023-02-28T02:23:17;18.10;58.60
27188;DHT22;14708;50.872;5.306;2023-02-28T02:25:58;18.20;58.70
27188;DHT22;14708;50.872;5.306;2023-02-28T02:29:00;18.10;58.60
27188;DHT22;14708;50.872;5.306;2023-02-28T02:35:15;18.10;58.70
27188;DHT22;14708;50.872;5.306;2023-02-28T02:37:48;18.10;58.60
27188;DHT22;14708;50.872;5.306;2023-02-28T02:45:27;18.10;58.60
27188;DHT22;14708;50.872;5.306;2023-02-28T02:47:56;18.00;58.50
27188;DHT22;14708;50.872;5.306;2023-02-28T02:50:29;18.00;58.60
27188;DHT22;14708;50.872;5.306;2023-02-28T02:56:21;18.00;58.40
27188;DHT22;14708;50.872;5.306;2023-02-28T02:58:49;18.00;58.50
27188;DHT22;14708;50.872;5.306;2023-02-28T03:01:19;18.00;58.40
27188;DHT22;14708;50.872;5.306;2023-02-28T03:04:06;18.00;58.40
27188;DHT22;14708;50.872;5.306;2023-02-28T03:06:32;18.00;58.40
27188;DHT22;14708;50.872;5.306;2023-02-28T03:09:00;18.00;58.40
27188;DHT22;14708;50.872;5.306;2023-02-28T03:11:26;17.90;58.40
27188;DHT22;14708;50.872;5.306;2023-02-28T03:27:25;17.90;58.40
27188;DHT22;14708;50.872;5.306;2023-02-28T03:32:28;17.90;58.20
27188;DHT22;14708;50.872;5.306;2023-02-28T03:35:29;17.90;58.40
27188;DHT22;14708;50.872;5.306;2023-02-28T03:38:10;17.90;58.50
27188;DHT22;14708;50.872;5.306;2023-02-28T03:40:43;17.90;58.40
27188;DHT22;14708;50.872;5.306;2023-02-28T03:43:14;17.90;58.30
27188;DHT22;14708;50.872;5.306;2023-02-28T03:45:41;17.90;58.40
27188;DHT22;14708;50.872;5.306;2023-02-28T03:48:23;17.80;58.40
27188;DHT22;14708;50.872;5.306;2023-02-28T03:50:53;17.80;58.40
27188;DHT22;14708;50.872;5.306;2023-02-28T04:07:07;17.80;58.40
27188;DHT22;14708;50.872;5.306;2023-02-28T04:09:33;17.80;58.30
27188;DHT22;14708;50.872;5.306;2023-02-28T04:11:58;17.70;58.30
27188;DHT22;14708;50.872;5.306;2023-02-28T04:14:25;17.70;58.40
27188;DHT22;14708;50.872;5.306;2023-02-28T04:16:53;17.70;58.20
27188;DHT22;14708;50.872;5.306;2023-02-28T04:19:19;17.70;58.30
27188;DHT22;14708;50.872;5.306;2023-02-28T04:21:47;17.70;58.30
27188;DHT22;14708;50.872;5.306;2023-02-28T04:24:16;17.70;58.20
27188;DHT22;14708;50.872;5.306;2023-02-28T04:26:47;17.70;58.30
27188;DHT22;14708;50.872;5.306;2023-02-28T04:29:27;17.70;58.30
27188;DHT22;14708;50.872;5.306;2023-02-28T04:31:55;17.70;58.40
27188;DHT22;14708;50.872;5.306;2023-02-28T04:34:23;17.70;58.20
27188;DHT22;14708;50.872;5.306;2023-02-28T04:36:50;17.70;58.30
27188;DHT22;14708;50.872;5.306;2023-02-28T04:39:16;17.70;58.20
27188;DHT22;14708;50.872;5.306;2023-02-28T04:41:46;17.70;58.30
27188;DHT22;14708;50.872;5.306;2023-02-28T04:44:15;17.70;58.30
27188;DHT22;14708;50.872;5.306;2023-02-28T04:46:41;17.70;58.30
27188;DHT22;14708;50.872;5.306;2023-02-28T04:49:11;17.60;58.50
27188;DHT22;14708;50.872;5.306;2023-02-28T04:51:37;17.70;58.20
27188;DHT22;14708;50.872;5.306;2023-02-28T04:54:03;17.70;58.20
27188;DHT22;14708;50.872;5.306;2023-02-28T04:56:29;17.60;58.20
27188;DHT22;14708;50.872;5.306;2023-02-28T04:58:54;17.60;58.00
27188;DHT22;14708;50.872;5.306;2023-02-28T05:01:26;17.60;58.10
27188;DHT22;14708;50.872;5.306;2023-02-28T05:07:14;17.60;58.00
27188;DHT22;14708;50.872;5.306;2023-02-28T05:09:39;17.60;58.00
27188;DHT22;14708;50.872;5.306;2023-02-28T05:12:05;17.60;57.90
27188;DHT22;14708;50.872;5.306;2023-02-28T05:14:31;17.60;58.00
27188;DHT22;14708;50.872;5.306;2023-02-28T05:16:57;17.60;58.00
27188;DHT22;14708;50.872;5.306;2023-02-28T05:19:22;17.60;57.90
27188;DHT22;14708;50.872;5.306;2023-02-28T05:21:53;17.60;58.00
27188;DHT22;14708;50.872;5.306;2023-02-28T05:24:19;17.60;58.10
27188;DHT22;14708;50.872;5.306;2023-02-28T05:26:48;17.60;57.90
27188;DHT22;14708;50.872;5.306;2023-02-28T05:52:16;17.50;57.90
27188;DHT22;14708;50.872;5.306;2023-02-28T05:54:41;17.50;57.90
27188;DHT22;14708;50.872;5.306;2023-02-28T05:57:07;17.50;57.90
27188;DHT22;14708;50.872;5.306;2023-02-28T05:59:33;17.40;57.80
27188;DHT22;14708;50.872;5.306;2023-02-28T06:18:54;17.40;58.00
27188;DHT22;14708;50.872;5.306;2023-02-28T06:21:23;17.40;57.70
27188;DHT22;14708;50.872;5.306;2023-02-28T06:23:49;17.40;57.80
27188;DHT22;14708;50.872;5.306;2023-02-28T06:26:15;17.50;57.80
27188;DHT22;14708;50.872;5.306;2023-02-28T06:28:41;17.50;57.80
27188;DHT22;14708;50.872;5.306;2023-02-28T06:31:12;17.60;57.90
27188;DHT22;14708;50.872;5.306;2023-02-28T06:33:38;17.70;57.70
27188;DHT22;14708;50.872;5.306;2023-02-28T06:36:05;17.80;57.60
27188;DHT22;14708;50.872;5.306;2023-02-28T06:38:31;17.90;57.60
27188;DHT22;14708;50.872;5.306;2023-02-28T06:40:59;18.00;57.20
27188;DHT22;14708;50.872;5.306;2023-02-28T06:43:27;18.10;56.40
27188;DHT22;14708;50.872;5.306;2023-02-28T07:00:43;18.80;56.10
27188;DHT22;14708;50.872;5.306;2023-02-28T07:03:10;18.80;56.10
27188;DHT22;14708;50.872;5.306;2023-02-28T07:05:39;18.80;55.90
27188;DHT22;14708;50.872;5.306;2023-02-28T07:08:05;18.80;56.10
27188;DHT22;14708;50.872;5.306;2023-02-28T07:10:32;18.80;56.20
27188;DHT22;14708;50.872;5.306;2023-02-28T07:12:58;18.90;56.20
27188;DHT22;14708;50.872;5.306;2023-02-28T07:15:24;19.00;56.10
27188;DHT22;14708;50.872;5.306;2023-02-28T07:17:50;19.00;54.60
27188;DHT22;14708;50.872;5.306;2023-02-28T07:20:16;19.20;54.60
27188;DHT22;14708;50.872;5.306;2023-02-28T07:22:42;19.30;54.40
27188;DHT22;14708;50.872;5.306;2023-02-28T07:25:09;19.40;54.50
27188;DHT22;14708;50.872;5.306;2023-02-28T07:34:20;19.90;53.90
27188;DHT22;14708;50.872;5.306;2023-02-28T07:36:45;19.90;53.80
27188;DHT22;14708;50.872;5.306;2023-02-28T07:39:11;20.00;53.60
27188;DHT22;14708;50.872;5.306;2023-02-28T07:41:36;20.10;53.90
27188;DHT22;14708;50.872;5.306;2023-02-28T07:44:09;20.10;53.70
27188;DHT22;14708;50.872;5.306;2023-02-28T07:46:35;20.00;53.40
27188;DHT22;14708;50.872;5.306;2023-02-28T07:49:02;20.10;53.70
27188;DHT22;14708;50.872;5.306;2023-02-28T07:51:29;20.00;53.70
27188;DHT22;14708;50.872;5.306;2023-02-28T07:53:55;20.10;53.80
27188;DHT22;14708;50.872;5.306;2023-02-28T07:56:21;20.10;54.00
27188;DHT22;14708;50.872;5.306;2023-02-28T07:58:46;20.00;54.00
27188;DHT22;14708;50.872;5.306;2023-02-28T08:01:13;20.00;54.10
27188;DHT22;14708;50.872;5.306;2023-02-28T08:03:39;20.00;54.40
27188;DHT22;14708;50.872;5.306;2023-02-28T08:06:16;20.00;54.20
27188;DHT22;14708;50.872;5.306;2023-02-28T08:08:42;20.00;54.70
27188;DHT22;14708;50.872;5.306;2023-02-28T08:11:09;19.90;54.90
27188;DHT22;14708;50.872;5.306;2023-02-28T08:13:35;19.90;54.40
27188;DHT22;14708;50.872;5.306;2023-02-28T08:16:02;20.10;53.50
27188;DHT22;14708;50.872;5.306;2023-02-28T08:18:28;20.20;52.30
27188;DHT22;14708;50.872;5.306;2023-02-28T08:27:57;20.50;50.50
27188;DHT22;14708;50.872;5.306;2023-02-28T08:30:23;20.60;49.10
27188;DHT22;14708;50.872;5.306;2023-02-28T08:32:49;20.70;48.30
27188;DHT22;14708;50.872;5.306;2023-02-28T08:35:14;20.80;48.40
27188;DHT22;14708;50.872;5.306;2023-02-28T08:37:40;20.70;47.40
27188;DHT22;14708;50.872;5.306;2023-02-28T08:40:06;20.80;49.40
27188;DHT22;14708;50.872;5.306;2023-02-28T08:42:32;20.80;50.50
27188;DHT22;14708;50.872;5.306;2023-02-28T08:44:58;20.80;50.30
27188;DHT22;14708;50.872;5.306;2023-02-28T08:47:23;20.80;50.50
27188;DHT22;14708;50.872;5.306;2023-02-28T08:49:49;20.70;50.50
27188;DHT22;14708;50.872;5.306;2023-02-28T08:52:15;20.80;50.80
27188;DHT22;14708;50.872;5.306;2023-02-28T08:54:41;20.80;51.60
27188;DHT22;14708;50.872;5.306;2023-02-28T08:57:06;20.70;51.50
27188;DHT22;14708;50.872;5.306;2023-02-28T08:59:32;20.70;51.50
27188;DHT22;14708;50.872;5.306;2023-02-28T09:01:58;20.70;51.30
27188;DHT22;14708;50.872;5.306;2023-02-28T09:04:23;20.70;50.90
27188;DHT22;14708;50.872;5.306;2023-02-28T09:06:56;20.70;51.50
27188;DHT22;14708;50.872;5.306;2023-02-28T09:09:22;20.80;51.20
27188;DHT22;14708;50.872;5.306;2023-02-28T09:11:47;20.90;50.40
27188;DHT22;14708;50.872;5.306;2023-02-28T09:14:13;20.90;52.00
27188;DHT22;14708;50.872;5.306;2023-02-28T09:16:39;20.90;52.00
27188;DHT22;14708;50.872;5.306;2023-02-28T09:19:04;20.90;52.00
27188;DHT22;14708;50.872;5.306;2023-02-28T09:21:30;20.90;50.90
27188;DHT22;14708;50.872;5.306;2023-02-28T09:23:56;20.90;50.90
27188;DHT22;14708;50.872;5.306;2023-02-28T09:26:24;20.90;51.50
27188;DHT22;14708;50.872;5.306;2023-02-28T09:28:51;20.80;50.50
27188;DHT22;14708;50.872;5.306;2023-02-28T09:31:20;20.80;50.50
27188;DHT22;14708;50.872;5.306;2023-02-28T09:33:51;20.80;50.70
27188;DHT22;14708;50.872;5.306;2023-02-28T09:36:18;20.90;50.70
27188;DHT22;14708;50.872;5.306;2023-02-28T09:38:44;20.80;48.50
27188;DHT22;14708;50.872;5.306;2023-02-28T09:41:26;20.80;48.80
27188;DHT22;14708;50.872;5.306;2023-02-28T09:43:57;20.80;49.10
27188;DHT22;14708;50.872;5.306;2023-02-28T09:46:38;20.80;49.20
27188;DHT22;14708;50.872;5.306;2023-02-28T09:49:18;20.80;49.30
27188;DHT22;14708;50.872;5.306;2023-02-28T09:51:53;20.80;49.50
27188;DHT22;14708;50.872;5.306;2023-02-28T09:54:22;20.80;49.60
27188;DHT22;14708;50.872;5.306;2023-02-28T10:07:02;20.80;50.30
27188;DHT22;14708;50.872;5.306;2023-02-28T10:09:32;20.90;50.20
27188;DHT22;14708;50.872;5.306;2023-02-28T10:12:05;21.00;50.10
27188;DHT22;14708;50.872;5.306;2023-02-28T10:14:33;21.00;48.80
27188;DHT22;14708;50.872;5.306;2023-02-28T10:17:04;21.10;49.60
27188;DHT22;14708;50.872;5.306;2023-02-28T10:19:58;21.10;49.90
27188;DHT22;14708;50.872;5.306;2023-02-28T10:24:54;21.20;50.10
27188;DHT22;14708;50.872;5.306;2023-02-28T10:27:22;21.10;50.50
27188;DHT22;14708;50.872;5.306;2023-02-28T10:29:50;21.20;50.30
27188;DHT22;14708;50.872;5.306;2023-02-28T10:32:21;21.20;50.60
27188;DHT22;14708;50.872;5.306;2023-02-28T10:34:54;21.20;50.10
27188;DHT22;14708;50.872;5.306;2023-02-28T10:37:22;21.20;50.30
27188;DHT22;14708;50.872;5.306;2023-02-28T10:39:47;21.20;50.10
27188;DHT22;14708;50.872;5.306;2023-02-28T10:42:27;21.20;50.10
27188;DHT22;14708;50.872;5.306;2023-02-28T10:45:15;21.10;50.60
27188;DHT22;14708;50.872;5.306;2023-02-28T10:48:00;21.10;50.50
27188;DHT22;14708;50.872;5.306;2023-02-28T10:50:45;21.10;50.70
27188;DHT22;14708;50.872;5.306;2023-02-28T10:59:02;21.20;51.00
27188;DHT22;14708;50.872;5.306;2023-02-28T11:01:48;21.10;51.30
27188;DHT22;14708;50.872;5.306;2023-02-28T11:09:39;21.00;52.00
27188;DHT22;14708;50.872;5.306;2023-02-28T11:15:30;21.10;52.50
27188;DHT22;14708;50.872;5.306;2023-02-28T11:17:58;21.10;52.40
27188;DHT22;14708;50.872;5.306;2023-02-28T11:20:29;21.10;52.50
27188;DHT22;14708;50.872;5.306;2023-02-28T11:22:57;21.10;51.90
27188;DHT22;14708;50.872;5.306;2023-02-28T11:25:35;21.00;52.30
27188;DHT22;14708;50.872;5.306;2023-02-28T11:28:06;21.20;52.50
27188;DHT22;14708;50.872;5.306;2023-02-28T11:36:14;21.10;52.20
27188;DHT22;14708;50.872;5.306;2023-02-28T11:38:40;21.20;52.40
27188;DHT22;14708;50.872;5.306;2023-02-28T11:41:13;21.20;52.60
27188;DHT22;14708;50.872;5.306;2023-02-28T11:44:05;21.20;52.70
27188;DHT22;14708;50.872;5.306;2023-02-28T11:46:53;21.20;52.60
27188;DHT22;14708;50.872;5.306;2023-02-28T11:55:11;21.20;52.40
27188;DHT22;14708;50.872;5.306;2023-02-28T11:57:52;21.20;52.30
27188;DHT22;14708;50.872;5.306;2023-02-28T12:00:37;21.20;52.40
27188;DHT22;14708;50.872;5.306;2023-02-28T12:05:52;21.10;52.10
27188;DHT22;14708;50.872;5.306;2023-02-28T12:17:44;21.00;51.00
27188;DHT22;14708;50.872;5.306;2023-02-28T12:26:07;21.20;51.30
27188;DHT22;14708;50.872;5.306;2023-02-28T12:32:05;21.30;51.20
27188;DHT22;14708;50.872;5.306;2023-02-28T12:34:37;21.30;51.00
27188;DHT22;14708;50.872;5.306;2023-02-28T12:37:10;21.40;51.40
27188;DHT22;14708;50.872;5.306;2023-02-28T12:39:46;21.40;51.30
27188;DHT22;14708;50.872;5.306;2023-02-28T12:42:24;21.60;51.40
27188;DHT22;14708;50.872;5.306;2023-02-28T12:45:01;21.60;51.50
27188;DHT22;14708;50.872;5.306;2023-02-28T12:50:50;21.80;51.10
27188;DHT22;14708;50.872;5.306;2023-02-28T12:53:27;21.80;50.50
27188;DHT22;14708;50.872;5.306;2023-02-28T12:58:43;21.90;50.90
27188;DHT22;14708;50.872;5.306;2023-02-28T13:01:30;21.80;50.10
27188;DHT22;14708;50.872;5.306;2023-02-28T13:09:30;21.70;50.80
27188;DHT22;14708;50.872;5.306;2023-02-28T13:11:57;21.70;51.40
27188;DHT22;14708;50.872;5.306;2023-02-28T13:14:40;21.70;50.80
27188;DHT22;14708;50.872;5.306;2023-02-28T13:22:40;21.90;50.40
27188;DHT22;14708;50.872;5.306;2023-02-28T13:27:52;22.00;49.00
27188;DHT22;14708;50.872;5.306;2023-02-28T13:38:51;22.00;49.10
27188;DHT22;14708;50.872;5.306;2023-02-28T13:41:41;22.10;48.60
27188;DHT22;14708;50.872;5.306;2023-02-28T13:48:02;22.00;49.00
27188;DHT22;14708;50.872;5.306;2023-02-28T13:50:36;22.00;49.10
27188;DHT22;14708;50.872;5.306;2023-02-28T14:06:37;22.20;50.80
27188;DHT22;14708;50.872;5.306;2023-02-28T14:09:21;22.20;50.30
27188;DHT22;14708;50.872;5.306;2023-02-28T14:14:55;22.20;50.70
27188;DHT22;14708;50.872;5.306;2023-02-28T14:17:21;22.10;50.30
27188;DHT22;14708;50.872;5.306;2023-02-28T14:19:47;22.10;50.90
27188;DHT22;14708;50.872;5.306;2023-02-28T14:25:22;22.20;51.00
27188;DHT22;14708;50.872;5.306;2023-02-28T14:37:37;22.20;51.50
27188;DHT22;14708;50.872;5.306;2023-02-28T14:40:11;22.20;51.40
27188;DHT22;14708;50.872;5.306;2023-02-28T14:42:37;22.20;51.60
27188;DHT22;14708;50.872;5.306;2023-02-28T14:45:20;22.20;51.80
27188;DHT22;14708;50.872;5.306;2023-02-28T14:47:49;22.20;52.10
27188;DHT22;14708;50.872;5.306;2023-02-28T14:50:32;22.20;52.30
27188;DHT22;14708;50.872;5.306;2023-02-28T14:52:59;22.20;52.10
27188;DHT22;14708;50.872;5.306;2023-02-28T14:55:31;22.20;50.90
27188;DHT22;14708;50.872;5.306;2023-02-28T14:58:02;22.10;50.50
27188;DHT22;14708;50.872;5.306;2023-02-28T15:00:48;22.10;49.90
27188;DHT22;14708;50.872;5.306;2023-02-28T15:06:01;22.10;49.40
27188;DHT22;14708;50.872;5.306;2023-02-28T15:08:27;22.10;48.80
27188;DHT22;14708;50.872;5.306;2023-02-28T15:10:58;22.10;49.40
27188;DHT22;14708;50.872;5.306;2023-02-28T15:13:46;22.20;49.70
27188;DHT22;14708;50.872;5.306;2023-02-28T15:16:16;22.20;46.00
27188;DHT22;14708;50.872;5.306;2023-02-28T15:21:34;22.30;49.50
27188;DHT22;14708;50.872;5.306;2023-02-28T15:26:55;22.30;50.50
27188;DHT22;14708;50.872;5.306;2023-02-28T15:29:24;22.20;50.70
27188;DHT22;14708;50.872;5.306;2023-02-28T15:31:56;22.20;51.30
27188;DHT22;14708;50.872;5.306;2023-02-28T15:34:41;22.20;51.10
27188;DHT22;14708;50.872;5.306;2023-02-28T15:43:14;22.00;51.90
27188;DHT22;14708;50.872;5.306;2023-02-28T15:45:50;21.90;52.40
27188;DHT22;14708;50.872;5.306;2023-02-28T15:50:53;21.90;52.70
27188;DHT22;14708;50.872;5.306;2023-02-28T15:53:23;21.90;52.60
27188;DHT22;14708;50.872;5.306;2023-02-28T15:55:55;21.80;52.20
27188;DHT22;14708;50.872;5.306;2023-02-28T15:58:24;21.70;51.60
27188;DHT22;14708;50.872;5.306;2023-02-28T16:01:29;21.80;52.30
27188;DHT22;14708;50.872;5.306;2023-02-28T16:03:59;21.80;52.30
27188;DHT22;14708;50.872;5.306;2023-02-28T16:06:45;21.90;52.30
27188;DHT22;14708;50.872;5.306;2023-02-28T16:09:15;22.00;52.60
27188;DHT22;14708;50.872;5.306;2023-02-28T16:11:48;22.10;52.80
27188;DHT22;14708;50.872;5.306;2023-02-28T16:14:25;22.10;52.70
27188;DHT22;14708;50.872;5.306;2023-02-28T16:16:54;22.10;52.60
27188;DHT22;14708;50.872;5.306;2023-02-28T16:19:20;22.20;52.90
27188;DHT22;14708;50.872;5.306;2023-02-28T16:21:46;22.10;52.60
27188;DHT22;14708;50.872;5.306;2023-02-28T16:24:12;22.10;52.70
27188;DHT22;14708;50.872;5.306;2023-02-28T16:26:40;22.10;52.70
27188;DHT22;14708;50.872;5.306;2023-02-28T16:29:06;22.10;52.80
27188;DHT22;14708;50.872;5.306;2023-02-28T16:31:36;22.00;53.20
27188;DHT22;14708;50.872;5.306;2023-02-28T16:34:03;21.90;53.20
27188;DHT22;14708;50.872;5.306;2023-02-28T16:36:29;21.90;52.20
27188;DHT22;14708;50.872;5.306;2023-02-28T16:38:55;21.80;52.10
27188;DHT22;14708;50.872;5.306;2023-02-28T16:41:22;21.70;52.10
27188;DHT22;14708;50.872;5.306;2023-02-28T16:43:51;21.60;52.70
27188;DHT22;14708;50.872;5.306;2023-02-28T16:46:17;21.70;52.80
27188;DHT22;14708;50.872;5.306;2023-02-28T16:48:45;21.70;52.60
27188;DHT22;14708;50.872;5.306;2023-02-28T16:58:01;21.70;53.00
27188;DHT22;14708;50.872;5.306;2023-02-28T17:00:29;21.70;53.40
27188;DHT22;14708;50.872;5.306;2023-02-28T17:02:55;21.60;53.90
27188;DHT22;14708;50.872;5.306;2023-02-28T17:05:22;21.60;54.00
27188;DHT22;14708;50.872;5.306;2023-02-28T17:07:52;21.60;52.50
27188;DHT22;14708;50.872;5.306;2023-02-28T17:10:26;21.60;50.90
27188;DHT22;14708;50.872;5.306;2023-02-28T17:12:52;21.60;51.60
27188;DHT22;14708;50.872;5.306;2023-02-28T17:15:19;21.70;52.90
27188;DHT22;14708;50.872;5.306;2023-02-28T17:17:47;21.70;53.10
27188;DHT22;14708;50.872;5.306;2023-02-28T17:30:22;21.80;52.70
27188;DHT22;14708;50.872;5.306;2023-02-28T17:32:47;21.80;52.90
27188;DHT22;14708;50.872;5.306;2023-02-28T17:35:16;21.70;51.40
27188;DHT22;14708;50.872;5.306;2023-02-28T17:37:42;21.70;52.20
27188;DHT22;14708;50.872;5.306;2023-02-28T17:43:38;21.60;51.70
27188;DHT22;14708;50.872;5.306;2023-02-28T17:46:04;21.50;48.40
27188;DHT22;14708;50.872;5.306;2023-02-28T17:48:31;21.50;51.60
27188;DHT22;14708;50.872;5.306;2023-02-28T17:50:57;21.50;52.60
27188;DHT22;14708;50.872;5.306;2023-02-28T17:53:23;21.50;52.60
27188;DHT22;14708;50.872;5.306;2023-02-28T17:55:49;21.60;52.80
27188;DHT22;14708;50.872;5.306;2023-02-28T17:58:15;21.60;52.80
27188;DHT22;14708;50.872;5.306;2023-02-28T18:00:41;21.70;53.40
27188;DHT22;14708;50.872;5.306;2023-02-28T18:03:06;21.80;53.40
27188;DHT22;14708;50.872;5.306;2023-02-28T18:05:33;21.80;53.50
27188;DHT22;14708;50.872;5.306;2023-02-28T18:07:59;21.80;53.40
27188;DHT22;14708;50.872;5.306;2023-02-28T18:10:25;21.80;53.60
27188;DHT22;14708;50.872;5.306;2023-02-28T18:12:53;21.80;53.70
27188;DHT22;14708;50.872;5.306;2023-02-28T18:15:20;21.80;52.80
27188;DHT22;14708;50.872;5.306;2023-02-28T18:17:55;21.80;53.80
27188;DHT22;14708;50.872;5.306;2023-02-28T18:20:21;21.70;54.10
27188;DHT22;14708;50.872;5.306;2023-02-28T18:22:46;21.70;54.00
27188;DHT22;14708;50.872;5.306;2023-02-28T18:25:13;21.70;54.20
27188;DHT22;14708;50.872;5.306;2023-02-28T18:27:41;21.70;54.50
27188;DHT22;14708;50.872;5.306;2023-02-28T18:30:19;21.60;54.70
27188;DHT22;14708;50.872;5.306;2023-02-28T18:32:45;21.60;54.90
27188;DHT22;14708;50.872;5.306;2023-02-28T18:35:10;21.60;54.70
27188;DHT22;14708;50.872;5.306;2023-02-28T18:37:36;21.70;55.00
27188;DHT22;14708;50.872;5.306;2023-02-28T18:46:47;21.90;55.00
27188;DHT22;14708;50.872;5.306;2023-02-28T18:49:13;21.90;54.80
27188;DHT22;14708;50.872;5.306;2023-02-28T18:51:38;21.90;54.40
27188;DHT22;14708;50.872;5.306;2023-02-28T18:54:04;21.90;51.50
27188;DHT22;14708;50.872;5.306;2023-02-28T18:59:57;21.90;53.80
27188;DHT22;14708;50.872;5.306;2023-02-28T19:02:22;21.80;54.00
27188;DHT22;14708;50.872;5.306;2023-02-28T19:04:48;21.70;54.10
27188;DHT22;14708;50.872;5.306;2023-02-28T19:07:13;21.70;54.30
27188;DHT22;14708;50.872;5.306;2023-02-28T19:09:39;21.60;54.60
27188;DHT22;14708;50.872;5.306;2023-02-28T19:12:05;21.50;54.70
27188;DHT22;14708;50.872;5.306;2023-02-28T19:14:30;21.50;54.90
27188;DHT22;14708;50.872;5.306;2023-02-28T19:16:56;21.40;54.90
27188;DHT22;14708;50.872;5.306;2023-02-28T19:19:21;21.30;54.90
27188;DHT22;14708;50.872;5.306;2023-02-28T19:21:47;21.30;55.10
27188;DHT22;14708;50.872;5.306;2023-02-28T19:24:13;21.20;55.10
27188;DHT22;14708;50.872;5.306;2023-02-28T19:26:38;21.20;55.30
27188;DHT22;14708;50.872;5.306;2023-02-28T19:29:04;21.20;55.40
27188;DHT22;14708;50.872;5.306;2023-02-28T19:38:14;21.10;55.60
27188;DHT22;14708;50.872;5.306;2023-02-28T19:40:40;21.00;55.80
27188;DHT22;14708;50.872;5.306;2023-02-28T19:43:06;21.00;55.90
27188;DHT22;14708;50.872;5.306;2023-02-28T19:45:36;21.00;53.80
27188;DHT22;14708;50.872;5.306;2023-02-28T19:48:03;21.10;53.90
27188;DHT22;14708;50.872;5.306;2023-02-28T20:00:46;20.90;55.20
27188;DHT22;14708;50.872;5.306;2023-02-28T20:03:12;20.90;55.20
27188;DHT22;14708;50.872;5.306;2023-02-28T20:05:37;20.90;55.30
27188;DHT22;14708;50.872;5.306;2023-02-28T20:08:03;20.80;55.50
27188;DHT22;14708;50.872;5.306;2023-02-28T20:10:29;20.80;55.10
27188;DHT22;14708;50.872;5.306;2023-02-28T20:23:29;20.60;55.60
27188;DHT22;14708;50.872;5.306;2023-02-28T20:25:59;20.50;55.40
27188;DHT22;14708;50.872;5.306;2023-02-28T20:28:25;20.50;55.40
27188;DHT22;14708;50.872;5.306;2023-02-28T20:30:51;20.50;55.70
27188;DHT22;14708;50.872;5.306;2023-02-28T20:33:17;20.40;55.60
27188;DHT22;14708;50.872;5.306;2023-02-28T20:35:46;20.40;55.70
27188;DHT22;14708;50.872;5.306;2023-02-28T20:38:13;20.30;55.80
27188;DHT22;14708;50.872;5.306;2023-02-28T20:40:39;20.30;56.00
27188;DHT22;14708;50.872;5.306;2023-02-28T20:53:16;20.10;56.00
27188;DHT22;14708;50.872;5.306;2023-02-28T20:55:53;20.10;56.00
27188;DHT22;14708;50.872;5.306;2023-02-28T20:58:23;20.10;56.30
27188;DHT22;14708;50.872;5.306;2023-02-28T21:00:49;20.10;56.20
27188;DHT22;14708;50.872;5.306;2023-02-28T21:03:14;20.10;56.30
27188;DHT22;14708;50.872;5.306;2023-02-28T21:33:53;19.80;56.70
27188;DHT22;14708;50.872;5.306;2023-02-28T21:36:23;19.70;56.60
27188;DHT22;14708;50.872;5.306;2023-02-28T21:38:55;19.70;56.70
27188;DHT22;14708;50.872;5.306;2023-02-28T21:41:22;19.70;56.60
27188;DHT22;14708;50.872;5.306;2023-02-28T21:44:05;19.70;56.50
27188;DHT22;14708;50.872;5.306;2023-02-28T21:46:31;19.60;56.60
27188;DHT22;14708;50.872;5.306;2023-02-28T21:48:57;19.60;56.50
27188;DHT22;14708;50.872;5.306;2023-02-28T21:51:28;19.60;56.60
27188;DHT22;14708;50.872;5.306;2023-02-28T21:53:57;19.50;56.60
27188;DHT22;14708;50.872;5.306;2023-02-28T21:56:30;19.60;56.70
27188;DHT22;14708;50.872;5.306;2023-02-28T21:58:56;19.60;56.80
27188;DHT22;14708;50.872;5.306;2023-02-28T22:01:33;19.60;56.70
27188;DHT22;14708;50.872;5.306;2023-02-28T22:04:00;19.50;56.60
27188;DHT22;14708;50.872;5.306;2023-02-28T22:06:31;19.50;56.60
27188;DHT22;14708;50.872;5.306;2023-02-28T22:08:59;19.50;56.60
27188;DHT22;14708;50.872;5.306;2023-02-28T22:11:27;19.40;56.60
27188;DHT22;14708;50.872;5.306;2023-02-28T22:13:54;19.40;56.60
27188;DHT22;14708;50.872;5.306;2023-02-28T22:16:25;19.40;56.70
27188;DHT22;14708;50.872;5.306;2023-02-28T22:19:04;19.40;56.70
27188;DHT22;14708;50.872;5.306;2023-02-28T22:21:34;19.30;56.70
27188;DHT22;14708;50.872;5.306;2023-02-28T22:24:01;19.40;56.60
27188;DHT22;14708;50.872;5.306;2023-02-28T22:26:27;19.40;56.90
27188;DHT22;14708;50.872;5.306;2023-02-28T22:28:52;19.30;56.70
27188;DHT22;14708;50.872;5.306;2023-02-28T22:31:26;19.30;56.80
27188;DHT22;14708;50.872;5.306;2023-02-28T22:37:23;19.30;56.70
27188;DHT22;14708;50.872;5.306;2023-02-28T22:39:49;19.30;56.80
27188;DHT22;14708;50.872;5.306;2023-02-28T22:42:14;19.30;56.60